Time;durP1;ratioP1;P1;durP2;ratioP2;P2;SDS_P1;SDS_P2;PMS_P1;PMS_P2;Temp;Humidity;BMP_temperature;BMP_pressure;BME280_temperature;BME280_humidity;BME280_pressure;Samples;Min_cycle;Max_cycle;Signal;HPM_P1;HPM_P2
2021/05/30 00:00:41;;;;;;;27.20;9.95;;;;;;;8.11;75.56;99239.84;2141374;82;21071;-66
2021/05/30 00:03:44;;;;;;;25.25;10.50;;;;;;;8.07;75.66;99236.97;2172741;81;21014;-61
2021/05/30 00:06:44;;;;;;;24.20;9.20;;;;;;;7.98;75.79;99236.45;2141455;82;20995;-65
2021/05/30 00:09:46;;;;;;;25.15;9.48;;;;;;;7.92;75.96;99237.20;2196277;80;21624;-61
2021/05/30 00:12:47;;;;;;;27.07;10.23;;;;;;;7.89;76.15;99247.31;2172923;81;21045;-62
2021/05/30 00:15:48;;;;;;;26.48;10.32;;;;;;;7.85;76.23;99241.83;2152663;82;21640;-63
2021/05/30 00:18:48;;;;;;;25.30;10.30;;;;;;;7.82;76.41;99246.34;2215303;80;20972;-60
2021/05/30 00:21:49;;;;;;;26.42;10.93;;;;;;;7.84;76.33;99244.50;2162520;82;21608;-59
2021/05/30 00:24:49;;;;;;;26.80;10.32;;;;;;;7.72;76.10;99241.50;2215201;80;21516;-60
2021/05/30 00:27:50;;;;;;;26.62;10.50;;;;;;;7.60;76.48;99244.18;2162669;82;21494;-65
2021/05/30 00:30:50;;;;;;;21.15;7.30;;;;;;;7.50;76.67;99239.39;2215131;80;21021;-63
2021/05/30 00:33:51;;;;;;;19.73;5.53;;;;;;;7.35;76.20;99247.41;2162374;82;21105;-64
2021/05/30 00:36:51;;;;;;;21.90;8.18;;;;;;;7.18;76.23;99241.58;2214904;80;21025;-64
2021/05/30 00:39:52;;;;;;;25.05;9.48;;;;;;;7.09;76.57;99244.10;2162411;82;21018;-64
2021/05/30 00:42:52;;;;;;;25.72;10.50;;;;;;;7.05;76.62;99252.95;2214986;80;21022;-62
2021/05/30 00:45:53;;;;;;;26.70;10.38;;;;;;;6.98;76.41;99249.73;2162544;82;21038;-61
2021/05/30 00:48:53;;;;;;;24.43;10.68;;;;;;;6.93;76.92;99252.52;2214872;80;21141;-60
2021/05/30 00:51:54;;;;;;;24.37;9.68;;;;;;;6.89;77.27;99249.64;2162916;82;20982;-65
2021/05/30 00:54:54;;;;;;;24.05;9.33;;;;;;;6.90;77.84;99251.81;2215236;80;20994;-62
2021/05/30 00:57:55;;;;;;;21.50;8.10;;;;;;;6.92;77.91;99248.24;2162746;82;21504;-64
2021/05/30 01:00:55;;;;;;;47.78;9.85;;;;;;;6.91;77.39;99254.36;2215249;80;21552;-64
2021/05/30 01:03:56;;;;;;;70.37;8.85;;;;;;;6.80;77.21;99246.56;2162592;82;21473;-64
2021/05/30 01:06:58;;;;;;;73.85;10.60;;;;;;;6.70;77.14;99253.42;2214909;80;21018;-60
2021/05/30 01:09:58;;;;;;;49.15;7.03;;;;;;;6.62;76.73;99251.55;2189608;80;21005;-64
2021/05/30 01:12:59;;;;;;;20.72;7.20;;;;;;;6.54;76.70;99249.25;2162502;82;21058;-61
2021/05/30 01:15:59;;;;;;;22.35;8.45;;;;;;;6.43;77.17;99255.77;2203506;80;21071;-65
2021/05/30 01:19:00;;;;;;;23.75;7.62;;;;;;;6.36;77.59;99246.86;2126007;83;21039;-65
2021/05/30 01:22:01;;;;;;;23.57;8.40;;;;;;;6.37;78.36;99249.88;2192597;81;21562;-64
2021/05/30 01:25:01;;;;;;;22.93;8.63;;;;;;;6.36;77.97;99244.72;2125909;83;21034;-64
2021/05/30 01:28:04;;;;;;;25.37;9.18;;;;;;;6.37;78.17;99249.03;2192722;81;21090;-63
2021/05/30 01:31:04;;;;;;;25.55;9.43;;;;;;;6.34;77.92;99253.06;2169738;81;21537;-65
2021/05/30 01:34:05;;;;;;;26.33;10.25;;;;;;;6.31;77.62;99246.66;2125987;84;21023;-66
2021/05/30 01:37:05;;;;;;;20.45;7.33;;;;;;;6.23;77.99;99247.80;2192576;81;21003;-65
2021/05/30 01:40:06;;;;;;;15.95;5.00;;;;;;;6.15;77.33;99254.16;2125944;83;21018;-66
2021/05/30 01:43:06;;;;;;;25.50;9.23;;;;;;;6.03;77.62;99247.64;2192624;81;21126;-66
2021/05/30 01:46:07;;;;;;;17.75;5.30;;;;;;;6.00;77.89;99248.59;2125878;83;21047;-66
2021/05/30 01:49:07;;;;;;;23.50;6.80;;;;;;;6.05;78.20;99245.38;2192730;81;21050;-66
2021/05/30 01:52:08;;;;;;;63.95;8.28;;;;;;;6.05;78.11;99244.08;2125958;83;21007;-66
2021/05/30 01:55:16;;;;;;;74.67;12.37;;;;;;;6.03;78.20;99243.30;2192785;81;21712;-65
2021/05/30 01:58:11;;;;;;;23.20;6.45;;;;;;;6.03;78.44;99244.61;2169780;81;21015;-66
2021/05/30 02:01:12;;;;;;;19.45;6.33;;;;;;;6.02;78.16;99255.92;2125988;83;21042;-64
2021/05/30 02:04:13;;;;;;;17.40;5.28;;;;;;;5.97;78.45;99251.74;2192573;81;21490;-66
2021/05/30 02:07:13;;;;;;;23.55;10.18;;;;;;;5.97;78.21;99256.52;2125951;83;21030;-65
2021/05/30 02:10:14;;;;;;;23.10;8.58;;;;;;;6.02;78.31;99250.70;2192685;81;21062;-65
2021/05/30 02:13:14;;;;;;;23.73;8.58;;;;;;;6.05;78.07;99251.89;2126204;83;21015;-62
2021/05/30 02:16:15;;;;;;;29.98;12.40;;;;;;;6.05;77.92;99254.50;2204056;80;21117;-65
2021/05/30 02:19:16;;;;;;;29.10;11.73;;;;;;;6.08;79.01;99250.94;2214832;80;21560;-65
2021/05/30 02:22:16;;;;;;;28.27;11.30;;;;;;;6.09;78.85;99250.48;2214669;80;20982;-66
2021/05/30 02:25:16;;;;;;;27.75;10.50;;;;;;;6.11;79.25;99236.97;2214768;80;21025;-65
2021/05/30 02:28:17;;;;;;;28.38;11.35;;;;;;;6.14;79.24;99242.06;2214916;80;20985;-65
2021/05/30 02:31:17;;;;;;;38.98;11.05;;;;;;;6.18;79.13;99244.95;2162068;82;21089;-63
2021/05/30 02:34:18;;;;;;;48.83;10.85;;;;;;;6.20;79.38;99242.66;2162121;82;21117;-65
2021/05/30 02:37:19;;;;;;;53.27;11.37;;;;;;;6.29;79.69;99241.94;2162294;82;21607;-62
2021/05/30 02:40:20;;;;;;;84.47;10.98;;;;;;;6.38;79.08;99245.53;2161979;82;21023;-65
2021/05/30 02:43:22;;;;;;;33.70;9.40;;;;;;;6.33;78.73;99247.44;2161945;82;21062;-65
2021/05/30 02:46:22;;;;;;;35.40;7.28;;;;;;;6.26;78.57;99253.31;2141169;83;21050;-65
2021/05/30 02:49:24;;;;;;;32.33;7.37;;;;;;;6.08;77.55;99267.88;2123788;83;21034;-66
2021/05/30 02:52:24;;;;;;;32.50;6.75;;;;;;;5.83;78.07;99276.52;2162091;82;21557;-65
2021/05/30 02:55:25;;;;;;;46.37;6.50;;;;;;;5.69;78.51;99276.97;2141090;83;21023;-64
2021/05/30 02:58:26;;;;;;;36.20;6.50;;;;;;;5.66;78.40;99280.98;2123642;83;21018;-65
2021/05/30 03:01:27;;;;;;;55.23;7.00;;;;;;;5.66;78.49;99290.52;2162059;82;21026;-65
2021/05/30 03:04:27;;;;;;;37.67;6.37;;;;;;;5.61;78.78;99287.24;2141145;83;21114;-65
2021/05/30 03:07:28;;;;;;;17.45;5.97;;;;;;;5.58;79.28;99291.25;2123451;83;21612;-65
2021/05/30 03:10:29;;;;;;;19.12;5.50;;;;;;;5.60;80.09;99285.08;2161818;82;21609;-65
2021/05/30 03:13:29;;;;;;;18.98;5.92;;;;;;;5.67;79.41;99293.53;2141050;83;21031;-65
2021/05/30 03:16:30;;;;;;;22.90;7.80;;;;;;;5.75;78.95;99291.97;2122994;83;21043;-64
2021/05/30 03:19:30;;;;;;;26.93;9.65;;;;;;;5.84;79.41;99287.30;2162036;82;20979;-66
2021/05/30 03:22:30;;;;;;;27.45;8.83;;;;;;;6.05;80.02;99293.56;2140825;83;21003;-65
2021/05/30 03:25:31;;;;;;;24.30;8.38;;;;;;;6.30;80.17;99299.66;2123548;83;21038;-65
2021/05/30 03:28:31;;;;;;;23.02;8.90;;;;;;;6.49;79.62;99294.63;2162096;82;21026;-65
2021/05/30 03:31:32;;;;;;;25.72;9.58;;;;;;;6.66;79.76;99292.70;2141133;83;20971;-65
2021/05/30 03:34:32;;;;;;;24.77;10.48;;;;;;;6.81;79.47;99294.74;2123470;83;21600;-65
2021/05/30 03:37:33;;;;;;;25.02;10.68;;;;;;;6.99;79.46;99302.77;2162055;82;21581;-66
2021/05/30 03:40:43;;;;;;;25.68;11.15;;;;;;;7.15;79.33;99301.70;2162177;82;21015;-66
2021/05/30 03:43:36;;;;;;;26.50;11.97;;;;;;;7.26;79.32;99299.52;2145795;82;21034;-65
2021/05/30 03:46:36;;;;;;;29.35;13.03;;;;;;;7.36;79.25;99290.41;2161981;82;21557;-63
2021/05/30 03:49:37;;;;;;;24.80;10.85;;;;;;;7.48;79.32;99294.28;2162068;82;21018;-66
2021/05/30 03:52:37;;;;;;;24.37;10.68;;;;;;;7.62;79.06;99293.72;2161915;82;21006;-64
2021/05/30 03:55:38;;;;;;;28.80;11.15;;;;;;;7.71;78.96;99288.57;2161806;82;21086;-65
2021/05/30 03:58:38;;;;;;;27.00;11.53;;;;;;;7.80;78.98;99291.65;2162042;82;20991;-64
2021/05/30 04:01:39;;;;;;;26.60;11.05;;;;;;;7.92;78.82;99292.88;2161894;82;21070;-64
2021/05/30 04:04:39;;;;;;;26.17;11.83;;;;;;;8.03;78.61;99291.57;2161887;82;21101;-64
2021/05/30 04:07:40;;;;;;;25.90;11.45;;;;;;;8.08;78.57;99283.92;2162160;82;21003;-65
2021/05/30 04:10:44;;;;;;;28.05;12.28;;;;;;;8.20;78.50;99285.62;2161710;82;21588;-64
2021/05/30 04:13:43;;;;;;;;;;;;;;;8.29;78.32;99281.31;2147970;82;21173;-65
2021/05/30 04:16:43;;;;;;;26.27;11.88;;;;;;;8.43;78.45;99280.23;2153658;82;20488;-64
2021/05/30 04:19:44;;;;;;;27.42;12.40;;;;;;;8.67;78.50;99276.97;2196045;80;20999;-64
2021/05/30 04:22:44;;;;;;;25.65;11.68;;;;;;;8.99;78.46;99270.72;2141189;83;21043;-64
2021/05/30 04:25:45;;;;;;;27.32;12.40;;;;;;;9.38;78.22;99273.25;2196117;81;21034;-64
2021/05/30 04:28:45;;;;;;;28.57;13.48;;;;;;;9.63;77.79;99282.06;2141180;82;21075;-64
2021/05/30 04:31:46;;;;;;;26.12;12.13;;;;;;;9.72;78.11;99272.42;2196271;81;20994;-63
2021/05/30 04:34:46;;;;;;;28.20;13.20;;;;;;;9.80;77.74;99266.81;2141333;82;21570;-64
2021/05/30 04:37:46;;;;;;;26.27;12.55;;;;;;;9.75;78.30;99276.66;2195919;81;21011;-64
2021/05/30 04:40:47;;;;;;;24.57;11.80;;;;;;;9.87;78.58;99282.60;2141066;82;21019;-63
2021/05/30 04:43:47;;;;;;;24.25;11.08;;;;;;;10.04;78.38;99288.27;2196015;81;21054;-63
2021/05/30 04:46:48;;;;;;;25.20;11.15;;;;;;;10.34;78.46;99287.64;2141163;82;20980;-64
2021/05/30 04:49:48;;;;;;;24.20;9.90;;;;;;;10.68;78.43;99288.00;2196199;81;20972;-62
2021/05/30 04:52:49;;;;;;;23.52;10.40;;;;;;;11.16;76.96;99291.09;2141379;82;21031;-60
2021/05/30 04:55:49;;;;;;;25.17;10.65;;;;;;;11.52;76.23;99292.56;2195997;81;21022;-60
2021/05/30 04:58:50;;;;;;;22.73;9.68;;;;;;;11.76;76.95;99295.08;2141179;82;21011;-61
2021/05/30 05:01:50;;;;;;;21.73;7.95;;;;;;;11.80;75.43;99286.56;2195988;80;21006;-64
2021/05/30 05:04:51;;;;;;;21.70;8.20;;;;;;;11.91;74.65;99294.67;2141156;82;21039;-63
2021/05/30 05:07:51;;;;;;;19.73;7.60;;;;;;;12.08;75.67;99292.39;2196085;81;20979;-64
2021/05/30 05:10:52;;;;;;;18.80;6.55;;;;;;;12.11;74.00;99296.14;2141366;82;21083;-65
2021/05/30 05:13:54;;;;;;;19.48;7.37;;;;;;;11.86;73.60;99295.39;2195954;80;21019;-65
2021/05/30 05:16:54;;;;;;;20.52;7.10;;;;;;;11.55;74.68;99297.19;2149119;82;21042;-66
2021/05/30 05:19:54;;;;;;;18.70;6.47;;;;;;;11.33;74.90;99301.49;2215136;80;21066;-66
2021/05/30 05:22:55;;;;;;;20.00;6.60;;;;;;;11.10;76.53;99305.41;2162503;82;21104;-66
2021/05/30 05:25:55;;;;;;;19.20;6.33;;;;;;;10.95;75.94;99311.05;2215224;80;21509;-66
2021/05/30 05:28:56;;;;;;;19.10;6.55;;;;;;;10.88;76.53;99313.63;2162347;82;21030;-66
2021/05/30 05:31:56;;;;;;;20.52;6.83;;;;;;;10.88;76.25;99313.63;2214757;80;21049;-65
2021/05/30 05:34:57;;;;;;;19.20;6.90;;;;;;;10.86;77.57;99318.09;2162430;82;21038;-65
2021/05/30 05:37:57;;;;;;;18.32;6.30;;;;;;;10.79;76.47;99327.23;2215102;80;21061;-62
2021/05/30 05:40:57;;;;;;;16.87;6.00;;;;;;;10.77;76.52;99315.51;2162454;82;21157;-64
2021/05/30 05:43:58;;;;;;;20.43;6.25;;;;;;;10.83;76.55;99321.77;2215282;80;21028;-60
2021/05/30 05:46:58;;;;;;;18.23;6.28;;;;;;;10.94;76.44;99323.78;2162934;82;21566;-63
2021/05/30 05:49:59;;;;;;;19.80;6.45;;;;;;;11.04;76.39;99318.88;2215124;80;21627;-65
2021/05/30 05:52:59;;;;;;;20.90;6.35;;;;;;;11.12;75.43;99326.33;2162529;82;20998;-63
2021/05/30 05:56:00;;;;;;;19.10;6.00;;;;;;;11.12;75.59;99335.07;2215101;80;21037;-64
2021/05/30 05:59:00;;;;;;;17.25;5.80;;;;;;;11.10;75.35;99334.29;2162657;82;21069;-64
2021/05/30 06:02:01;;;;;;;16.70;5.92;;;;;;;11.06;75.37;99332.31;2215290;80;21005;-61
2021/05/30 06:05:01;;;;;;;15.72;5.53;;;;;;;11.11;75.32;99337.30;2162660;82;21022;-61
2021/05/30 06:08:02;;;;;;;16.87;5.92;;;;;;;11.14;75.40;99341.06;2215188;80;20998;-64
2021/05/30 06:11:02;;;;;;;16.77;5.85;;;;;;;11.17;74.83;99336.12;2162636;82;21066;-66
2021/05/30 06:14:03;;;;;;;15.70;5.08;;;;;;;11.23;75.02;99344.95;2215312;80;21001;-64
2021/05/30 06:17:03;;;;;;;17.42;5.30;;;;;;;11.14;74.77;99354.20;2155755;82;21039;-61
2021/05/30 06:20:04;;;;;;;16.17;5.20;;;;;;;11.12;75.30;99353.45;2196023;81;21011;-66
2021/05/30 06:23:05;;;;;;;17.85;5.58;;;;;;;11.13;75.22;99358.22;2141519;82;21023;-65
2021/05/30 06:26:10;;;;;;;18.35;5.53;;;;;;;11.13;75.57;99362.99;2196259;81;21030;-65
2021/05/30 06:29:08;;;;;;;18.20;5.28;;;;;;;11.13;75.13;99364.78;2173196;81;20999;-65
2021/05/30 06:32:09;;;;;;;18.48;5.37;;;;;;;11.03;75.43;99374.93;2141389;82;20995;-66
2021/05/30 06:35:09;;;;;;;15.60;4.80;;;;;;;10.91;75.46;99378.59;2196364;81;21495;-65
2021/05/30 06:38:10;;;;;;;15.95;4.95;;;;;;;10.84;75.27;99380.33;2141554;82;21530;-65
2021/05/30 06:41:10;;;;;;;15.28;4.92;;;;;;;10.79;75.71;99388.45;2195963;81;21018;-66
2021/05/30 06:44:11;;;;;;;14.18;4.75;;;;;;;10.74;76.07;99381.27;2141248;83;21015;-66
2021/05/30 06:47:11;;;;;;;16.52;5.35;;;;;;;10.66;76.21;99388.69;2196070;81;21069;-64
2021/05/30 06:50:12;;;;;;;15.72;4.97;;;;;;;10.56;76.41;99388.35;2141294;83;21102;-66
2021/05/30 06:53:12;;;;;;;16.87;4.53;;;;;;;10.51;76.63;99393.81;2196340;81;20991;-65
2021/05/30 06:56:13;;;;;;;17.30;4.80;;;;;;;10.46;76.88;99393.66;2141190;83;21031;-65
2021/05/30 06:59:13;;;;;;;13.15;4.50;;;;;;;10.46;77.33;99393.66;2196356;81;21568;-64
2021/05/30 07:02:14;;;;;;;23.50;9.98;;;;;;;10.48;77.42;99392.66;2141326;82;21506;-65
2021/05/30 07:05:16;;;;;;;23.57;9.50;;;;;;;10.54;77.61;99397.61;2195972;81;21028;-64
2021/05/30 07:08:16;;;;;;;27.27;9.85;;;;;;;10.55;77.43;99387.48;2141416;82;21026;-67
2021/05/30 07:11:17;;;;;;;21.90;8.00;;;;;;;10.69;77.45;99392.02;2196182;81;20991;-67
2021/05/30 07:14:17;;;;;;;18.92;6.28;;;;;;;10.89;77.20;99391.44;2141240;82;21170;-67
2021/05/30 07:17:17;;;;;;;15.72;4.60;;;;;;;11.16;76.84;99388.23;2195218;81;21035;-67
2021/05/30 07:20:18;;;;;;;13.28;4.22;;;;;;;11.51;76.49;99386.78;2126096;83;21538;-67
2021/05/30 07:23:18;;;;;;;14.53;4.47;;;;;;;11.86;75.61;99383.45;2192903;81;21592;-64
2021/05/30 07:26:19;;;;;;;14.73;4.60;;;;;;;12.22;75.48;99383.59;2126110;83;21588;-62
2021/05/30 07:29:19;;;;;;;14.73;4.62;;;;;;;12.53;75.09;99382.22;2192687;81;21011;-63
2021/05/30 07:35:22;;;;;;;14.98;4.90;;;;;;;13.14;73.65;99380.25;2169929;81;21023;-66
2021/05/30 07:38:23;;;;;;;13.70;4.70;;;;;;;13.28;72.62;99379.39;2126263;83;21502;-62
2021/05/30 07:41:23;;;;;;;13.85;4.40;;;;;;;13.48;72.42;99378.98;2192627;81;21169;-61
2021/05/30 07:44:23;;;;;;;12.58;4.45;;;;;;;13.65;71.88;99381.85;2125977;83;21067;-66
2021/05/30 07:47:24;;;;;;;12.65;4.33;;;;;;;13.77;71.74;99385.95;2192748;81;21114;-63
2021/05/30 07:50:24;;;;;;;12.63;4.33;;;;;;;13.97;71.05;99382.01;2125967;83;21023;-63
2021/05/30 07:53:25;;;;;;;12.55;3.90;;;;;;;14.38;71.46;99385.00;2192540;81;21077;-63
2021/05/30 07:56:26;;;;;;;12.47;3.72;;;;;;;14.56;69.30;99380.23;2125805;84;21027;-62
2021/05/30 07:59:26;;;;;;;11.22;3.70;;;;;;;14.78;68.77;99376.97;2192970;81;21517;-66
2021/05/30 08:02:27;;;;;;;8.83;3.50;;;;;;;14.89;67.60;99378.39;2126223;83;21628;-65
2021/05/30 08:05:28;;;;;;;10.88;3.50;;;;;;;15.00;68.05;99382.94;2192844;81;21545;-65
2021/05/30 08:08:29;;;;;;;11.48;3.60;;;;;;;15.18;66.89;99376.80;2125870;83;20983;-65
2021/05/30 08:11:30;;;;;;;9.93;3.52;;;;;;;15.39;67.11;99368.31;2192665;81;21034;-67
2021/05/30 08:14:30;;;;;;;11.43;3.77;;;;;;;15.37;65.21;99372.84;2125823;84;21026;-63
2021/05/30 08:17:31;;;;;;;10.65;3.50;;;;;;;15.16;65.76;99377.41;2193669;80;21035;-67
2021/05/30 08:20:32;;;;;;;9.43;3.42;;;;;;;15.24;66.01;99387.41;2141366;82;21606;-66
2021/05/30 08:23:34;;;;;;;7.45;2.98;;;;;;;15.45;65.72;99384.20;2196038;81;21014;-67
2021/05/30 08:26:35;;;;;;;7.33;3.22;;;;;;;15.62;66.97;99381.17;2141413;82;21031;-66
2021/05/30 08:29:36;;;;;;;8.18;3.22;;;;;;;15.74;64.96;99382.06;2196289;81;21486;-62
2021/05/30 08:32:36;;;;;;;10.35;3.25;;;;;;;15.65;64.66;99381.44;2141160;83;20995;-67
2021/05/30 08:35:37;;;;;;;9.75;3.17;;;;;;;15.67;62.81;99376.37;2196128;81;21533;-61
2021/05/30 08:38:37;;;;;;;10.18;3.20;;;;;;;15.50;63.20;99390.85;2141287;82;21086;-66
2021/05/30 08:41:38;;;;;;;9.25;3.25;;;;;;;15.53;62.79;99381.83;2196243;80;21045;-67
2021/05/30 08:44:38;;;;;;;12.07;3.45;;;;;;;15.75;62.64;99380.62;2141376;82;21051;-66
2021/05/30 08:47:39;;;;;;;10.68;3.65;;;;;;;16.26;63.19;99376.03;2196094;81;21545;-65
2021/05/30 08:50:39;;;;;;;6.80;2.87;;;;;;;16.86;60.80;99367.93;2141227;82;21031;-67
2021/05/30 08:53:40;;;;;;;8.95;3.22;;;;;;;16.79;59.13;99363.13;2195995;81;21525;-66
2021/05/30 08:56:42;;;;;;;6.72;2.90;;;;;;;16.80;59.57;99375.87;2141014;82;21067;-67
2021/05/30 08:59:44;;;;;;;8.50;3.17;;;;;;;16.85;59.90;99370.20;2195881;81;21059;-67
2021/05/30 09:02:44;;;;;;;7.37;2.90;;;;;;;17.32;61.15;99377.55;2141015;82;21071;-68
2021/05/30 09:05:45;;;;;;;8.73;2.80;;;;;;;17.07;59.71;99362.78;2195781;81;21062;-67
2021/05/30 09:08:45;;;;;;;7.72;2.85;;;;;;;17.13;56.97;99388.30;2141092;82;21019;-67
2021/05/30 09:11:46;;;;;;;6.15;2.90;;;;;;;17.24;57.29;99374.66;2195721;81;21001;-61
2021/05/30 09:14:50;;;;;;;6.03;2.75;;;;;;;17.27;59.17;99369.98;2141158;82;21050;-60
2021/05/30 09:17:49;;;;;;;6.97;2.33;;;;;;;17.20;54.49;99379.38;2171608;81;21042;-62
2021/05/30 09:20:49;;;;;;;7.03;2.58;;;;;;;17.07;57.46;99372.06;2126000;83;21546;-66
2021/05/30 09:23:50;;;;;;;6.78;2.30;;;;;;;17.07;59.08;99368.91;2192705;81;21572;-63
2021/05/30 09:26:52;;;;;;;7.05;2.75;;;;;;;16.84;55.53;99373.81;2111727;84;21074;-62
2021/05/30 09:29:52;;;;;;;5.20;2.40;;;;;;;17.02;55.89;99380.34;2192756;81;21600;-61
2021/05/30 09:32:53;;;;;;;7.78;2.47;;;;;;;17.30;53.69;99372.88;2125899;83;21589;-62
2021/05/30 09:35:53;;;;;;;6.50;2.72;;;;;;;16.94;53.68;99377.48;2192879;81;21027;-60
2021/05/30 09:38:54;;;;;;;9.13;2.65;;;;;;;16.81;54.45;99392.14;2126078;83;21037;-61
2021/05/30 09:41:54;;;;;;;7.97;2.80;;;;;;;17.15;53.60;99368.30;2192866;81;21529;-62
2021/05/30 09:44:55;;;;;;;6.95;2.70;;;;;;;16.94;53.07;99368.20;2126173;83;21545;-61
2021/05/30 09:47:56;;;;;;;9.58;2.98;;;;;;;16.42;53.63;99381.86;2192496;81;21118;-61
2021/05/30 09:54:01;;;;;;;5.50;2.37;;;;;;;16.96;55.97;99371.56;2169470;81;21534;-60
2021/05/30 09:57:01;;;;;;;7.22;2.47;;;;;;;17.29;52.64;99374.66;2126003;83;21006;-61
2021/05/30 10:00:02;;;;;;;6.70;2.40;;;;;;;17.84;53.92;99368.01;2192604;81;21054;-63
2021/05/30 10:03:02;;;;;;;6.95;2.25;;;;;;;18.00;51.34;99365.41;2125712;83;21035;-64
2021/05/30 10:06:03;;;;;;;7.80;2.42;;;;;;;17.84;51.73;99373.78;2192810;81;21137;-61
2021/05/30 10:09:03;;;;;;;6.37;2.35;;;;;;;17.96;51.88;99372.81;2126018;83;20956;-61
2021/05/30 10:12:04;;;;;;;7.00;2.75;;;;;;;18.26;49.76;99378.31;2192825;81;21541;-63
2021/05/30 10:15:04;;;;;;;4.58;2.40;;;;;;;18.51;51.13;99371.28;2125826;84;21050;-62
2021/05/30 10:18:05;;;;;;;6.12;2.25;;;;;;;18.21;47.63;99382.70;2193655;80;21074;-62
2021/05/30 10:21:06;;;;;;;8.38;2.80;;;;;;;17.98;47.81;99382.80;2141096;82;21031;-67
2021/05/30 10:24:06;;;;;;;7.28;2.35;;;;;;;17.94;49.62;99380.07;2195908;81;20995;-61
2021/05/30 10:27:07;;;;;;;7.83;2.50;;;;;;;17.82;48.99;99363.79;2140936;82;21082;-61
2021/05/30 10:30:10;;;;;;;8.13;2.58;;;;;;;17.55;49.34;99369.05;2195812;81;21010;-61
2021/05/30 10:33:09;;;;;;;7.50;2.70;;;;;;;17.97;50.92;99363.89;2173072;81;21016;-61
2021/05/30 10:36:10;;;;;;;7.28;2.70;;;;;;;18.68;45.75;99396.41;2141302;82;21542;-61
2021/05/30 10:39:10;;;;;;;6.40;2.20;;;;;;;18.36;48.56;99365.98;2196058;81;21031;-63
2021/05/30 10:42:11;;;;;;;6.40;2.30;;;;;;;18.26;48.14;99367.23;2141142;82;21023;-63
2021/05/30 10:45:12;;;;;;;7.37;1.90;;;;;;;18.11;47.06;99381.79;2196205;81;21031;-68
2021/05/30 10:48:12;;;;;;;4.45;2.20;;;;;;;17.83;47.04;99366.31;2141312;82;20988;-66
2021/05/30 10:51:21;;;;;;;5.62;2.00;;;;;;;17.91;49.05;99364.88;2195939;81;21030;-66
2021/05/30 10:54:15;;;;;;;8.73;2.25;;;;;;;17.86;47.10;99377.63;2172573;81;21114;-68
2021/05/30 10:57:15;;;;;;;5.53;2.33;;;;;;;17.64;48.99;99383.37;2141343;82;21522;-62
2021/05/30 11:00:16;;;;;;;6.35;2.30;;;;;;;17.20;47.57;99380.70;2196164;81;21521;-63
2021/05/30 11:03:17;;;;;;;7.78;2.17;;;;;;;16.82;48.80;99378.41;2141367;83;21355;-63
2021/05/30 11:06:20;;;;;;;6.22;2.30;;;;;;;16.55;48.85;99375.14;2196169;81;21149;-67
2021/05/30 11:09:21;;;;;;;7.12;2.22;;;;;;;16.44;50.49;99371.98;2141138;82;20991;-68
2021/05/30 11:12:21;;;;;;;3.85;2.12;;;;;;;16.52;50.68;99387.30;2195899;81;20991;-68
2021/05/30 11:15:22;;;;;;;7.78;2.87;;;;;;;16.50;51.25;99375.13;2141378;82;21048;-68
2021/05/30 11:18:22;;;;;;;6.22;2.15;;;;;;;16.60;49.52;99381.39;2195125;81;21573;-68
2021/05/30 11:21:23;;;;;;;8.35;2.37;;;;;;;16.95;50.75;99377.36;2126106;83;21573;-68
2021/05/30 11:24:25;;;;;;;6.45;2.40;;;;;;;17.11;50.46;99397.33;2192677;81;21624;-66
2021/05/30 11:27:25;;;;;;;7.75;2.30;;;;;;;17.37;51.47;99378.50;2126118;84;21038;-66
2021/05/30 11:30:25;;;;;;;5.53;2.27;;;;;;;17.79;50.73;99385.27;2192832;81;20982;-65
2021/05/30 11:33:26;;;;;;;6.70;2.27;;;;;;;17.94;48.53;99366.80;2126040;83;21098;-65
2021/05/30 11:36:27;;;;;;;6.25;2.45;;;;;;;17.90;50.45;99371.11;2192965;81;20975;-67
2021/05/30 11:39:27;;;;;;;10.00;2.35;;;;;;;18.07;47.46;99377.70;2126000;83;21529;-65
2021/05/30 11:42:28;;;;;;;7.00;2.37;;;;;;;18.03;48.21;99374.48;2192613;81;20995;-62
2021/05/30 11:45:28;;;;;;;6.97;2.17;;;;;;;17.99;46.71;99366.41;2125858;83;21050;-61
2021/05/30 11:48:29;;;;;;;5.42;2.15;;;;;;;18.82;48.06;99371.31;2192617;81;21062;-63
2021/05/30 11:51:30;;;;;;;4.62;2.08;;;;;;;19.31;45.21;99353.36;2126215;83;21078;-62
2021/05/30 11:54:30;;;;;;;6.60;2.02;;;;;;;18.60;45.73;99372.30;2193317;81;21007;-62
2021/05/30 11:57:31;;;;;;;3.20;1.90;;;;;;;17.91;46.62;99374.98;2126059;83;21042;-66
2021/05/30 12:00:31;;;;;;;5.33;2.35;;;;;;;17.40;47.41;99371.66;2192595;81;21094;-66
2021/05/30 12:03:32;;;;;;;7.70;2.22;;;;;;;17.03;48.33;99370.61;2125977;83;21498;-61
2021/05/30 12:06:32;;;;;;;4.45;2.30;;;;;;;16.65;48.56;99377.06;2192869;81;21514;-63
2021/05/30 12:09:32;;;;;;;7.53;2.42;;;;;;;16.27;48.94;99389.63;2125954;83;21022;-61
2021/05/30 12:12:33;;;;;;;7.25;1.90;;;;;;;16.07;49.43;99380.55;2192515;81;20988;-68
2021/05/30 12:15:34;;;;;;;8.18;1.95;;;;;;;15.96;48.18;99393.73;2125917;83;21019;-68
2021/05/30 12:18:34;;;;;;;8.43;2.00;;;;;;;15.79;49.67;99381.30;2199435;80;21034;-62
2021/05/30 12:21:34;;;;;;;5.58;1.90;;;;;;;15.69;49.26;99393.48;2214606;80;21025;-61
2021/05/30 12:24:36;;;;;;;8.83;1.98;;;;;;;15.68;48.98;99387.81;2214773;80;21045;-68
2021/05/30 12:27:36;;;;;;;8.60;2.15;;;;;;;15.66;48.77;99389.71;2214658;80;21548;-68
2021/05/30 12:30:37;;;;;;;4.05;1.87;;;;;;;15.69;48.67;99386.87;2214888;80;21569;-69
2021/05/30 12:33:37;;;;;;;7.08;2.08;;;;;;;15.81;48.79;99388.63;2214723;80;21512;-69
2021/05/30 12:36:37;;;;;;;6.17;2.15;;;;;;;15.93;48.15;99390.38;2214512;80;21002;-66
2021/05/30 12:39:38;;;;;;;5.58;2.05;;;;;;;16.00;47.43;99399.16;2214638;80;21021;-67
2021/05/30 12:42:40;;;;;;;5.35;2.05;;;;;;;15.99;46.84;99395.69;2214595;80;21018;-68
2021/05/30 12:45:41;;;;;;;4.45;1.80;;;;;;;16.04;47.45;99390.05;2214851;80;21113;-67
2021/05/30 12:48:41;;;;;;;6.90;2.30;;;;;;;16.12;47.35;99389.00;2214577;80;20970;-61
2021/05/30 12:51:42;;;;;;;5.08;2.10;;;;;;;16.21;47.84;99394.08;2161909;82;21050;-60
2021/05/30 12:54:43;;;;;;;7.03;1.98;;;;;;;16.30;46.60;99384.59;2140852;83;21011;-60
2021/05/30 12:57:45;;;;;;;4.22;1.87;;;;;;;16.35;46.64;99399.63;2123531;83;21000;-61
2021/05/30 13:00:45;;;;;;;7.28;2.20;;;;;;;16.42;46.91;99394.23;2133166;83;21073;-62
2021/05/30 13:03:46;;;;;;;8.73;2.37;;;;;;;16.46;47.01;99389.06;2123310;83;21067;-62
2021/05/30 13:06:47;;;;;;;5.90;1.82;;;;;;;16.53;46.84;99384.16;2140820;83;21047;-61
2021/05/30 13:09:47;;;;;;;7.80;2.60;;;;;;;16.66;48.16;99375.61;2123410;83;21038;-63
2021/05/30 13:12:48;;;;;;;7.92;2.40;;;;;;;16.68;45.59;99390.06;2161894;82;21050;-63
2021/05/30 13:15:49;;;;;;;6.20;2.50;;;;;;;16.69;47.34;99391.27;2141076;83;21043;-64
2021/05/30 13:18:50;;;;;;;8.75;3.25;;;;;;;16.77;46.91;99390.69;2123413;83;21537;-62
2021/05/30 13:21:50;;;;;;;8.85;3.02;;;;;;;16.82;46.72;99385.02;2161774;82;21023;-66
2021/05/30 13:24:51;;;;;;;6.78;2.80;;;;;;;16.93;46.88;99383.24;2140794;83;21130;-66
2021/05/30 13:27:51;;;;;;;7.12;2.77;;;;;;;17.06;47.84;99373.02;2123468;83;21033;-64
2021/05/30 13:30:52;;;;;;;7.50;2.83;;;;;;;17.25;47.25;99380.33;2161939;82;21010;-62
2021/05/30 13:33:52;;;;;;;9.18;2.80;;;;;;;17.42;46.90;99377.66;2141084;83;21015;-65
2021/05/30 13:36:53;;;;;;;8.28;3.08;;;;;;;17.52;46.59;99369.80;2123534;83;21631;-67
2021/05/30 13:39:53;;;;;;;7.25;2.47;;;;;;;17.64;46.95;99368.78;2161966;82;21561;-65
2021/05/30 13:42:54;;;;;;;4.92;2.47;;;;;;;17.64;47.49;99367.00;2141052;83;21023;-61
2021/05/30 13:45:54;;;;;;;4.67;2.15;;;;;;;17.64;46.84;99371.44;2123450;83;21572;-61
2021/05/30 13:48:55;;;;;;;5.10;1.85;;;;;;;17.56;44.73;99370.75;2161860;82;21082;-62
2021/05/30 13:51:55;;;;;;;6.15;1.95;;;;;;;17.51;43.07;99368.94;2140792;83;21035;-65
2021/05/30 13:54:56;;;;;;;7.10;2.25;;;;;;;17.45;43.03;99375.59;2123501;83;21014;-67
2021/05/30 13:57:57;;;;;;;7.28;2.15;;;;;;;17.39;43.34;99365.98;2161696;82;21140;-64
2021/05/30 14:00:58;;;;;;;3.22;1.80;;;;;;;17.37;43.93;99371.88;2140754;83;21062;-67
2021/05/30 14:03:59;;;;;;;4.22;1.90;;;;;;;17.41;44.59;99370.66;2123376;83;21080;-67
2021/05/30 14:07:00;;;;;;;5.15;2.20;;;;;;;17.33;43.47;99370.45;2162197;82;21010;-67
2021/05/30 14:10:00;;;;;;;4.28;2.20;;;;;;;17.33;44.96;99367.81;2140822;83;21602;-67